Time;durP1;ratioP1;P1;durP2;ratioP2;P2;SDS_P1;SDS_P2;PMS_P1;PMS_P2;Temp;Humidity;BMP_temperature;BMP_pressure;BME280_temperature;BME280_humidity;BME280_pressure;Samples;Min_cycle;Max_cycle;Signal;HPM_P1;HPM_P2
2022/01/31 00:00:19;;;;;;;23.40;6.90;;;4.20;99.90;;;;;;6246630;22;20085;-82
2022/01/31 00:02:47;;;;;;;24.53;6.60;;;4.20;99.90;;;;;;6221712;22;20529;-82
2022/01/31 00:05:13;;;;;;;21.67;7.57;;;4.20;99.90;;;;;;6219104;22;20415;-83
2022/01/31 00:07:39;;;;;;;21.37;6.13;;;4.20;99.90;;;;;;6247905;22;20474;-82
2022/01/31 00:10:08;;;;;;;22.77;6.80;;;4.30;99.90;;;;;;6247340;22;20460;-81
2022/01/31 00:12:45;;;;;;;18.73;6.50;;;4.30;99.90;;;;;;6247653;22;20095;-80
2022/01/31 00:15:11;;;;;;;26.50;8.23;;;4.20;99.90;;;;;;6272910;22;20475;-83
2022/01/31 00:17:37;;;;;;;26.20;8.17;;;4.20;99.90;;;;;;6222319;22;20241;-81
2022/01/31 00:20:04;;;;;;;24.43;6.20;;;4.20;99.90;;;;;;6222190;22;20027;-83
2022/01/31 00:22:29;;;;;;;22.03;7.43;;;4.20;99.90;;;;;;6250379;22;20064;-82
2022/01/31 00:24:55;;;;;;;25.20;7.57;;;4.20;99.90;;;;;;6224479;22;20019;-82
2022/01/31 00:27:21;;;;;;;24.27;8.60;;;4.20;99.90;;;;;;6249118;22;20027;-82
2022/01/31 00:29:47;;;;;;;21.93;7.00;;;4.20;99.90;;;;;;6250162;22;20114;-82
2022/01/31 00:32:13;;;;;;;25.10;8.53;;;4.20;99.90;;;;;;6248968;22;20094;-82
2022/01/31 00:34:39;;;;;;;21.50;8.27;;;4.20;99.90;;;;;;6225342;22;20015;-82
2022/01/31 00:37:05;;;;;;;25.07;7.90;;;4.20;99.90;;;;;;6249830;22;20022;-80
2022/01/31 00:39:34;;;;;;;22.63;8.37;;;4.20;99.90;;;;;;6250749;22;20011;-81
2022/01/31 00:42:02;;;;;;;26.27;8.87;;;4.20;99.90;;;;;;6201388;22;20046;-81
2022/01/31 00:44:38;;;;;;;27.23;9.33;;;4.20;99.90;;;;;;6250981;22;20015;-81
2022/01/31 00:47:15;;;;;;;26.40;9.70;;;4.20;99.90;;;;;;6226400;22;20023;-83
2022/01/31 00:49:48;;;;;;;26.00;9.23;;;4.20;99.90;;;;;;6204872;22;20015;-81
2022/01/31 00:52:14;;;;;;;21.77;8.53;;;4.30;99.90;;;;;;6224989;22;20019;-83
2022/01/31 00:54:40;;;;;;;24.53;9.53;;;4.30;99.90;;;;;;6250085;22;20015;-82
2022/01/31 00:57:06;;;;;;;25.87;10.00;;;4.30;99.90;;;;;;6248112;22;20467;-83
2022/01/31 00:59:32;;;;;;;24.20;9.57;;;4.30;99.90;;;;;;6225179;22;20091;-83
2022/01/31 01:02:01;;;;;;;21.87;9.43;;;4.30;99.90;;;;;;6249294;22;20046;-84
2022/01/31 01:04:30;;;;;;;22.50;10.03;;;4.30;99.90;;;;;;6250715;22;20015;-81
2022/01/31 01:06:56;;;;;;;20.13;10.73;;;4.30;99.90;;;;;;6224755;22;20380;-84
2022/01/31 01:09:22;;;;;;;25.20;11.07;;;4.40;99.90;;;;;;6249509;22;20382;-83
2022/01/31 01:11:48;;;;;;;22.50;10.33;;;4.30;99.90;;;;;;6220607;22;20023;-81
2022/01/31 01:14:14;;;;;;;26.30;12.17;;;4.30;99.90;;;;;;6243985;22;20015;-83
2022/01/31 01:16:40;;;;;;;27.10;11.83;;;4.30;99.90;;;;;;6248611;22;20022;-82
2022/01/31 01:19:06;;;;;;;30.60;13.67;;;4.30;99.90;;;;;;6247530;22;20015;-83
2022/01/31 01:21:32;;;;;;;26.50;13.00;;;4.30;99.90;;;;;;6249940;22;20024;-81
2022/01/31 01:23:58;;;;;;;25.87;14.30;;;4.30;99.90;;;;;;6249160;22;20345;-81
2022/01/31 01:26:24;;;;;;;27.10;14.40;;;4.20;99.90;;;;;;6274833;22;20015;-81
2022/01/31 01:28:50;;;;;;;28.43;16.53;;;4.20;99.90;;;;;;6223438;22;20386;-81
2022/01/31 01:31:15;;;;;;;30.87;17.70;;;4.10;99.90;;;;;;6248251;22;20012;-80
2022/01/31 01:33:44;;;;;;;30.70;16.87;;;4.20;99.90;;;;;;6248798;22;20019;-80
2022/01/31 01:36:10;;;;;;;33.17;18.50;;;4.20;99.90;;;;;;6249088;22;20015;-79
2022/01/31 01:38:36;;;;;;;31.13;18.77;;;4.10;99.90;;;;;;6223862;22;20017;-78
2022/01/31 01:41:02;;;;;;;28.10;20.37;;;4.10;99.90;;;;;;6224321;22;20648;-78
2022/01/31 01:43:32;;;;;;;33.03;22.57;;;4.00;99.90;;;;;;6274906;22;20023;-78
2022/01/31 01:45:59;;;;;;;33.67;21.70;;;4.00;99.90;;;;;;6274379;22;20545;-78
2022/01/31 01:48:26;;;;;;;33.40;20.20;;;4.00;99.90;;;;;;6249535;22;20351;-77
2022/01/31 01:50:53;;;;;;;33.73;22.10;;;3.90;99.90;;;;;;6275268;22;20015;-79
2022/01/31 01:53:19;;;;;;;36.43;23.50;;;4.00;99.90;;;;;;6248724;22;20023;-77
2022/01/31 01:55:46;;;;;;;33.57;23.33;;;3.90;99.90;;;;;;6248976;22;20069;-78
2022/01/31 01:58:16;;;;;;;37.63;25.37;;;3.90;99.90;;;;;;6272673;22;20065;-78
2022/01/31 02:00:50;;;;;;;33.63;24.40;;;3.90;99.90;;;;;;6249141;22;20069;-77
2022/01/31 02:03:20;;;;;;;33.23;23.97;;;3.80;99.90;;;;;;6273999;22;20072;-77
2022/01/31 02:05:47;;;;;;;27.55;23.05;;;3.80;99.90;;;;;;6275127;22;20015;-78
2022/01/31 02:08:15;;;;;;;31.87;26.27;;;3.70;99.90;;;;;;6273412;22;20076;-78
2022/01/31 02:10:41;;;;;;;31.83;26.13;;;3.70;99.90;;;;;;6220521;22;20016;-78
2022/01/31 02:13:09;;;;;;;37.00;26.63;;;3.60;99.90;;;;;;6270526;22;20011;-77
2022/01/31 02:15:35;;;;;;;34.67;27.40;;;3.60;99.90;;;;;;6275049;22;20015;-78
2022/01/31 02:18:03;;;;;;;37.03;29.00;;;3.50;99.90;;;;;;6249878;22;20364;-77
2022/01/31 02:20:29;;;;;;;30.70;27.23;;;3.60;99.90;;;;;;6248408;22;20022;-79
2022/01/31 02:23:02;;;;;;;36.03;29.40;;;3.50;99.90;;;;;;6248806;22;20522;-78
2022/01/31 02:25:31;;;;;;;37.93;30.57;;;3.50;99.90;;;;;;6247291;22;20344;-79
2022/01/31 02:28:00;;;;;;;38.40;29.30;;;3.50;99.90;;;;;;6222230;22;20026;-77
2022/01/31 02:30:26;;;;;;;41.53;30.83;;;3.40;99.90;;;;;;6248908;22;20080;-78
2022/01/31 02:32:52;;;;;;;38.50;29.53;;;3.50;99.90;;;;;;6249217;22;20394;-77
2022/01/31 02:35:17;;;;;;;31.53;26.43;;;3.50;99.90;;;;;;6243925;22;20023;-79
2022/01/31 02:37:43;;;;;;;32.63;25.93;;;3.60;99.90;;;;;;6218782;22;20027;-78
2022/01/31 02:40:09;;;;;;;30.90;24.50;;;3.60;99.90;;;;;;6248160;22;20022;-79
2022/01/31 02:42:35;;;;;;;28.97;25.00;;;3.60;99.90;;;;;;6248911;22;20027;-78
2022/01/31 02:45:02;;;;;;;28.53;23.43;;;3.60;99.90;;;;;;6221466;22;20015;-77
2022/01/31 02:47:32;;;;;;;28.37;24.03;;;3.60;99.90;;;;;;6246601;22;20098;-78
2022/01/31 02:50:01;;;;;;;30.77;23.90;;;3.70;99.90;;;;;;6245250;22;20020;-78
2022/01/31 02:52:31;;;;;;;31.80;24.00;;;3.60;99.90;;;;;;6244814;22;20019;-78
2022/01/31 02:54:57;;;;;;;24.90;21.08;;;3.70;99.90;;;;;;6270656;22;20025;-78
2022/01/31 02:57:23;;;;;;;26.47;21.87;;;3.70;99.90;;;;;;6268117;22;20043;-78
2022/01/31 02:59:50;;;;;;;23.53;20.83;;;3.70;99.90;;;;;;6219412;22;20023;-78
2022/01/31 03:02:16;;;;;;;24.80;20.67;;;3.70;99.90;;;;;;6216701;22;20534;-77
2022/01/31 03:04:42;;;;;;;24.40;21.07;;;3.70;99.90;;;;;;6245448;22;20019;-77
2022/01/31 03:07:08;;;;;;;25.77;19.93;;;3.70;99.90;;;;;;6248191;22;20025;-77
2022/01/31 03:09:34;;;;;;;22.23;17.67;;;3.70;99.90;;;;;;6273447;22;20015;-76
2022/01/31 03:12:00;;;;;;;25.77;19.40;;;3.70;99.90;;;;;;6223314;22;20015;-76
2022/01/31 03:14:26;;;;;;;24.60;17.90;;;3.80;99.90;;;;;;6273724;22;20016;-77
2022/01/31 03:16:51;;;;;;;26.43;19.07;;;3.90;99.90;;;;;;6273761;22;20098;-78
2022/01/31 03:19:18;;;;;;;26.37;20.03;;;3.80;99.90;;;;;;6272250;22;20472;-76
2022/01/31 03:21:45;;;;;;;28.33;19.17;;;3.90;99.90;;;;;;6269032;22;20015;-77
2022/01/31 03:24:12;;;;;;;24.00;19.77;;;3.90;99.90;;;;;;6241869;22;20022;-78
2022/01/31 03:26:39;;;;;;;27.80;20.37;;;4.00;99.90;;;;;;6246774;22;20023;-77
2022/01/31 03:29:06;;;;;;;24.53;18.60;;;4.10;99.90;;;;;;6246808;22;20015;-77
2022/01/31 03:31:32;;;;;;;27.20;18.80;;;4.20;99.90;;;;;;6247911;22;20015;-78
2022/01/31 03:33:58;;;;;;;22.93;15.77;;;4.20;99.90;;;;;;6248147;22;20026;-78
2022/01/31 03:36:24;;;;;;;20.87;14.50;;;4.50;99.90;;;;;;6222464;22;20102;-77
2022/01/31 03:38:50;;;;;;;21.27;13.70;;;4.50;99.90;;;;;;6273278;22;20319;-77
2022/01/31 03:41:19;;;;;;;21.87;14.53;;;4.60;99.90;;;;;;6247367;22;20481;-78
2022/01/31 03:43:45;;;;;;;21.43;11.77;;;4.70;99.90;;;;;;6273770;22;20019;-79
2022/01/31 03:46:11;;;;;;;26.93;12.47;;;4.80;99.90;;;;;;6223037;22;20444;-80
2022/01/31 03:48:37;;;;;;;29.57;11.80;;;4.90;99.90;;;;;;6223477;22;20034;-77
2022/01/31 03:51:04;;;;;;;32.70;10.80;;;5.00;99.90;;;;;;6273658;22;20450;-78
2022/01/31 03:53:31;;;;;;;22.57;9.17;;;5.10;99.90;;;;;;6223546;22;20068;-79
2022/01/31 03:55:57;;;;;;;27.60;8.97;;;5.10;99.90;;;;;;6273561;22;20015;-78
2022/01/31 03:58:24;;;;;;;23.67;7.60;;;5.20;99.90;;;;;;6247687;22;20011;-79
2022/01/31 04:00:51;;;;;;;27.13;7.80;;;5.30;99.90;;;;;;6271585;22;20022;-79
2022/01/31 04:03:17;;;;;;;24.03;6.97;;;5.40;99.90;;;;;;6242538;22;20118;-79
2022/01/31 04:05:43;;;;;;;28.77;6.37;;;5.50;99.90;;;;;;6241970;22;20628;-80
2022/01/31 04:08:09;;;;;;;27.27;6.30;;;5.60;99.90;;;;;;6270102;22;20011;-79
2022/01/31 04:10:36;;;;;;;23.17;5.93;;;5.60;99.90;;;;;;6247509;22;20047;-81
2022/01/31 04:13:03;;;;;;;23.30;5.63;;;5.70;99.90;;;;;;6222495;22;20308;-80
2022/01/31 04:15:29;;;;;;;34.03;7.20;;;5.90;99.90;;;;;;6247774;22;20091;-80
2022/01/31 04:17:55;;;;;;;26.90;5.53;;;5.90;99.90;;;;;;6244633;22;20436;-78
2022/01/31 04:20:21;;;;;;;22.02;5.25;;;5.90;99.90;;;;;;6218441;22;20016;-78
2022/01/31 04:22:55;;;;;;;23.27;5.20;;;5.90;99.90;;;;;;6197514;22;20019;-78
2022/01/31 04:25:42;;;;;;;26.20;5.00;;;5.90;99.90;;;;;;6223698;22;20551;-78
2022/01/31 04:28:25;;;;;;;25.25;5.63;;;6.00;99.90;;;;;;6221294;22;20026;-79
2022/01/31 04:31:11;;;;;;;14.47;1.90;;;5.90;99.90;;;;;;6221681;22;20052;-76
2022/01/31 04:33:38;;;;;;;15.10;2.95;;;5.90;99.90;;;;;;6272526;22;20022;-75
2022/01/31 04:36:05;;;;;;;10.13;2.20;;;5.60;99.90;;;;;;6272946;22;20016;-75
2022/01/31 04:38:31;;;;;;;8.70;2.20;;;5.30;99.90;;;;;;6247053;22;20034;-76
2022/01/31 04:40:57;;;;;;;20.07;4.10;;;5.10;99.90;;;;;;6271718;22;20026;-75
2022/01/31 04:43:29;;;;;;;17.70;3.40;;;5.00;99.90;;;;;;6220590;22;20019;-75
2022/01/31 04:45:59;;;;;;;20.10;4.00;;;5.00;99.90;;;;;;6247805;22;20321;-75
2022/01/31 04:48:25;;;;;;;22.83;4.33;;;5.00;99.90;;;;;;6273944;22;20348;-76
2022/01/31 04:50:51;;;;;;;22.47;4.40;;;5.00;99.90;;;;;;6246928;22;20020;-76
2022/01/31 04:53:17;;;;;;;23.43;5.67;;;5.10;99.90;;;;;;6221803;22;20034;-76
2022/01/31 04:55:43;;;;;;;22.90;4.83;;;5.20;99.90;;;;;;6271659;22;20080;-76
2022/01/31 04:58:10;;;;;;;20.77;4.50;;;5.20;99.90;;;;;;6243511;22;20015;-76
2022/01/31 05:00:36;;;;;;;23.87;4.30;;;5.30;99.90;;;;;;6217837;22;20019;-76
2022/01/31 05:03:04;;;;;;;18.77;3.83;;;5.30;99.90;;;;;;6244659;22;20058;-77
2022/01/31 05:05:31;;;;;;;26.73;5.33;;;5.40;99.90;;;;;;6244353;22;20023;-77
2022/01/31 05:07:56;;;;;;;25.37;4.47;;;5.40;99.90;;;;;;6220893;22;20015;-75
2022/01/31 05:10:22;;;;;;;25.10;4.63;;;5.40;99.90;;;;;;6224891;22;20022;-76
2022/01/31 05:12:48;;;;;;;23.57;4.63;;;5.50;99.90;;;;;;6250122;22;20019;-76
2022/01/31 05:15:14;;;;;;;23.10;4.83;;;5.40;99.90;;;;;;6250003;22;20356;-76
2022/01/31 05:17:40;;;;;;;24.80;4.20;;;5.40;99.90;;;;;;6276045;22;20026;-76
2022/01/31 05:20:06;;;;;;;28.50;5.83;;;5.40;99.90;;;;;;6270356;22;20020;-76
2022/01/31 05:22:32;;;;;;;27.10;4.60;;;5.40;99.90;;;;;;6220188;22;20469;-78
2022/01/31 05:24:58;;;;;;;29.90;5.20;;;5.50;99.90;;;;;;6220206;22;20026;-77
2022/01/31 05:27:24;;;;;;;24.27;4.13;;;5.50;99.90;;;;;;6270787;22;20020;-77
2022/01/31 05:29:50;;;;;;;14.43;2.97;;;5.60;99.90;;;;;;6245911;22;20022;-77
2022/01/31 05:32:16;;;;;;;10.03;2.13;;;5.60;99.90;;;;;;6243605;22;20077;-75
2022/01/31 05:34:41;;;;;;;7.07;1.47;;;5.50;99.90;;;;;;6218905;22;20016;-79
2022/01/31 05:37:07;;;;;;;12.93;2.07;;;5.40;99.90;;;;;;6219052;22;20464;-75
2022/01/31 05:39:33;;;;;;;10.63;2.07;;;5.30;99.90;;;;;;6245330;22;20012;-75
2022/01/31 05:41:59;;;;;;;8.67;1.60;;;5.10;99.90;;;;;;6219276;22;20074;-75
2022/01/31 05:44:26;;;;;;;11.97;2.30;;;5.20;99.90;;;;;;6270595;22;20023;-76
2022/01/31 05:46:52;;;;;;;9.73;1.70;;;5.00;99.90;;;;;;6269929;22;20023;-76
2022/01/31 05:49:18;;;;;;;7.83;1.27;;;5.00;99.90;;;;;;6219008;22;20088;-76
2022/01/31 05:52:05;;;;;;;8.77;1.10;;;4.90;99.90;;;;;;6241847;22;20023;-76
2022/01/31 05:54:33;;;;;;;8.73;1.47;;;4.90;99.90;;;;;;6266532;22;20027;-77
2022/01/31 05:57:00;;;;;;;11.00;1.40;;;4.80;99.90;;;;;;6264772;22;20382;-76
2022/01/31 05:59:26;;;;;;;9.30;1.60;;;4.70;99.90;;;;;;6242378;22;20353;-76
2022/01/31 06:01:53;;;;;;;10.07;1.43;;;4.70;99.90;;;;;;6267277;22;20600;-76
2022/01/31 06:04:19;;;;;;;9.53;1.67;;;4.70;99.90;;;;;;6216757;22;20046;-76
2022/01/31 06:06:45;;;;;;;9.10;1.73;;;4.70;99.90;;;;;;6268275;22;20511;-77
2022/01/31 06:09:10;;;;;;;11.20;1.47;;;4.70;99.90;;;;;;6268683;22;20095;-77
2022/01/31 06:11:36;;;;;;;11.57;1.80;;;4.70;99.90;;;;;;6242211;22;20016;-76
2022/01/31 06:14:07;;;;;;;9.10;1.80;;;4.70;99.90;;;;;;6242044;22;20020;-77
2022/01/31 06:16:33;;;;;;;;;;;4.70;99.90;;;;;;6243424;22;20123;-77
2022/01/31 06:18:59;;;;;;;13.23;2.37;;;4.70;99.90;;;;;;6243941;22;19966;-76
2022/01/31 06:21:25;;;;;;;13.47;2.50;;;4.70;99.90;;;;;;6248682;22;20027;-76
2022/01/31 06:23:52;;;;;;;13.60;2.10;;;4.70;99.90;;;;;;6274210;22;20017;-76
2022/01/31 06:26:19;;;;;;;13.27;2.13;;;4.70;99.90;;;;;;6274056;22;20022;-76
2022/01/31 06:28:53;;;;;;;11.97;2.20;;;4.70;99.90;;;;;;6198685;22;20015;-76
2022/01/31 06:31:19;;;;;;;16.17;2.97;;;4.80;99.90;;;;;;6199133;22;20451;-77
2022/01/31 06:33:45;;;;;;;18.50;2.60;;;4.80;99.90;;;;;;6249084;22;20542;-76
2022/01/31 06:36:11;;;;;;;14.97;2.70;;;4.90;99.90;;;;;;6197045;22;20106;-77
2022/01/31 06:38:38;;;;;;;17.97;3.30;;;4.90;99.90;;;;;;6244646;22;20019;-77
2022/01/31 06:41:07;;;;;;;17.27;2.40;;;5.00;99.90;;;;;;6270192;22;20222;-76
2022/01/31 06:43:33;;;;;;;12.97;2.30;;;5.20;99.90;;;;;;6273289;22;20015;-77
2022/01/31 06:45:59;;;;;;;13.63;2.37;;;5.10;99.90;;;;;;6247997;22;20027;-76
2022/01/31 06:48:24;;;;;;;16.80;2.63;;;5.20;99.90;;;;;;6246622;22;20448;-77
2022/01/31 06:50:50;;;;;;;16.67;2.70;;;5.20;99.90;;;;;;6219366;22;20463;-77
2022/01/31 06:53:18;;;;;;;15.53;2.90;;;5.20;99.90;;;;;;6219555;22;20050;-78
2022/01/31 06:55:44;;;;;;;18.97;3.33;;;5.20;99.90;;;;;;6269051;22;20050;-76
2022/01/31 06:58:10;;;;;;;14.53;2.30;;;5.20;99.90;;;;;;6269525;22;20022;-78
2022/01/31 07:00:38;;;;;;;12.37;2.13;;;5.30;99.90;;;;;;6246951;22;20094;-77
2022/01/31 07:03:06;;;;;;;11.85;2.33;;;5.30;99.90;;;;;;6273283;22;20030;-77
2022/01/31 07:05:31;;;;;;;10.77;1.77;;;5.30;99.90;;;;;;6273727;22;20109;-78
2022/01/31 07:07:58;;;;;;;8.50;1.37;;;5.40;99.90;;;;;;6223457;22;20015;-78
2022/01/31 07:10:23;;;;;;;9.10;1.40;;;5.30;99.90;;;;;;6222352;22;20015;-78
2022/01/31 07:12:53;;;;;;;9.27;1.97;;;5.30;99.90;;;;;;6222436;22;20065;-78
2022/01/31 07:15:19;;;;;;;13.03;2.03;;;5.30;99.90;;;;;;6247713;22;20332;-76
2022/01/31 07:17:46;;;;;;;9.53;1.57;;;5.20;99.90;;;;;;6223315;22;20043;-77
2022/01/31 07:20:21;;;;;;;10.40;1.70;;;5.20;99.90;;;;;;6246215;22;20321;-77
2022/01/31 07:22:53;;;;;;;10.80;2.10;;;5.20;99.90;;;;;;6250128;22;20019;-77
2022/01/31 07:25:34;;;;;;;11.77;1.70;;;5.20;99.90;;;;;;6223490;22;20023;-77
2022/01/31 07:28:02;;;;;;;13.90;2.30;;;5.20;99.90;;;;;;6273774;22;20042;-75
2022/01/31 07:30:28;;;;;;;13.43;2.00;;;5.10;99.90;;;;;;6248076;22;20011;-76
2022/01/31 07:32:54;;;;;;;16.90;2.13;;;5.10;99.90;;;;;;6222938;22;20076;-76
2022/01/31 07:35:20;;;;;;;11.97;2.07;;;5.10;99.90;;;;;;6247459;22;20019;-75
2022/01/31 07:37:46;;;;;;;12.23;2.10;;;5.10;99.90;;;;;;6273367;22;20058;-76
2022/01/31 07:40:13;;;;;;;15.97;2.77;;;5.10;99.90;;;;;;6222026;22;20019;-75
2022/01/31 07:42:38;;;;;;;21.63;3.23;;;5.00;99.90;;;;;;6272016;22;20019;-76
2022/01/31 07:45:05;;;;;;;17.13;2.57;;;5.00;99.90;;;;;;6245870;22;20093;-76
2022/01/31 07:47:31;;;;;;;17.87;2.80;;;5.10;99.90;;;;;;6220853;22;20343;-76
2022/01/31 07:50:00;;;;;;;17.37;2.73;;;5.10;99.90;;;;;;6245412;22;20267;-75
2022/01/31 07:52:25;;;;;;;17.83;2.80;;;5.00;99.90;;;;;;6246126;22;20025;-75
2022/01/31 07:54:51;;;;;;;19.20;2.97;;;5.10;99.90;;;;;;6221769;22;20049;-75
2022/01/31 07:57:18;;;;;;;20.73;3.20;;;5.10;99.90;;;;;;6272438;22;20061;-75
2022/01/31 07:59:44;;;;;;;17.70;3.55;;;5.10;99.90;;;;;;6273673;22;20015;-75
2022/01/31 08:02:10;;;;;;;22.77;3.17;;;5.10;99.90;;;;;;6272973;22;20486;-75
2022/01/31 08:04:36;;;;;;;16.77;2.60;;;5.10;99.90;;;;;;6246708;22;20015;-75
2022/01/31 08:07:02;;;;;;;24.57;3.87;;;5.10;99.90;;;;;;6245739;22;20019;-75
2022/01/31 08:09:28;;;;;;;21.97;4.37;;;5.20;99.90;;;;;;6271872;22;20062;-76
2022/01/31 08:11:54;;;;;;;20.23;4.03;;;5.20;99.90;;;;;;6270303;22;20073;-76
2022/01/31 08:14:20;;;;;;;23.93;3.70;;;5.30;99.90;;;;;;6219642;22;20421;-75
2022/01/31 08:16:46;;;;;;;19.83;3.73;;;5.30;99.90;;;;;;6196590;22;20019;-76
2022/01/31 08:19:12;;;;;;;21.20;4.00;;;5.30;99.90;;;;;;6272536;22;20023;-76
2022/01/31 08:21:38;;;;;;;24.87;3.77;;;5.40;99.90;;;;;;6270188;22;20073;-75
2022/01/31 08:24:05;;;;;;;18.10;4.10;;;5.30;99.90;;;;;;6270590;22;20019;-76
2022/01/31 08:26:31;;;;;;;21.75;3.92;;;5.40;99.90;;;;;;6221481;22;20027;-76
2022/01/31 08:29:04;;;;;;;19.63;4.20;;;5.50;99.90;;;;;;6273408;22;20344;-75
2022/01/31 08:31:35;;;;;;;27.00;4.37;;;5.60;99.90;;;;;;6245938;22;20479;-76
2022/01/31 08:36:43;;;;;;;27.13;5.13;;;5.60;99.90;;;;;;6250384;22;20098;-75
2022/01/31 08:39:17;;;;;;;26.37;5.37;;;5.60;99.90;;;;;;6247095;22;20325;-75
2022/01/31 08:41:48;;;;;;;30.97;6.50;;;5.60;99.90;;;;;;6247854;22;20026;-74
2022/01/31 08:44:17;;;;;;;36.83;6.10;;;5.70;99.90;;;;;;6273719;22;20470;-74
2022/01/31 08:46:45;;;;;;;28.40;5.70;;;5.80;99.90;;;;;;6275321;22;20396;-76
2022/01/31 08:49:13;;;;;;;23.57;5.03;;;5.80;99.90;;;;;;6274188;22;20020;-74
2022/01/31 08:51:40;;;;;;;24.93;4.67;;;5.90;99.90;;;;;;6273536;22;20116;-83
2022/01/31 08:54:06;;;;;;;23.92;4.78;;;6.00;99.90;;;;;;6248028;22;20504;-83
2022/01/31 08:56:40;;;;;;;20.45;4.68;;;5.80;99.90;;;;;;6248875;22;20101;-83
2022/01/31 08:59:15;;;;;;;18.35;4.25;;;5.90;99.90;;;;;;6248660;22;20015;-83
2022/01/31 09:01:43;;;;;;;13.15;3.17;;;5.80;99.90;;;;;;6248249;22;20015;-84
2022/01/31 09:04:11;;;;;;;14.43;4.40;;;5.90;99.90;;;;;;6271717;22;20046;-84
2022/01/31 09:06:38;;;;;;;14.00;4.23;;;6.00;99.90;;;;;;6248083;22;20083;-84
2022/01/31 09:09:08;;;;;;;16.48;2.97;;;6.00;99.90;;;;;;6224080;22;20092;-86
2022/01/31 09:11:36;;;;;;;13.30;2.40;;;6.00;99.90;;;;;;6248140;22;20446;-83
2022/01/31 09:14:03;;;;;;;16.85;2.47;;;6.10;99.90;;;;;;6249086;22;20352;-85
2022/01/31 09:16:30;;;;;;;14.87;2.90;;;6.10;99.90;;;;;;6222891;22;20053;-85
2022/01/31 09:18:56;;;;;;;13.05;2.75;;;6.10;99.90;;;;;;6199835;22;20020;-85
2022/01/31 09:21:22;;;;;;;14.32;3.17;;;6.20;99.90;;;;;;6247668;22;20023;-86
2022/01/31 09:23:52;;;;;;;13.75;2.67;;;6.20;99.90;;;;;;6198524;22;20030;-85
2022/01/31 09:26:21;;;;;;;16.52;3.15;;;6.20;99.90;;;;;;6224277;22;20019;-86
2022/01/31 09:28:50;;;;;;;10.00;1.80;;;6.30;99.90;;;;;;6248790;22;20149;-86
2022/01/31 09:31:16;;;;;;;11.55;2.50;;;6.30;99.90;;;;;;6274574;22;20406;-86
2022/01/31 09:33:42;;;;;;;12.48;2.60;;;6.30;99.90;;;;;;6248612;22;20456;-85
2022/01/31 09:36:07;;;;;;;13.77;2.38;;;6.30;99.90;;;;;;6223573;22;20023;-86
2022/01/31 09:38:33;;;;;;;15.77;2.20;;;6.40;99.90;;;;;;6223727;22;20098;-85
2022/01/31 09:40:59;;;;;;;14.15;2.40;;;6.40;99.90;;;;;;6249324;22;20026;-86
2022/01/31 09:43:51;;;;;;;19.58;2.90;;;6.40;99.90;;;;;;6197631;22;20023;-86
2022/01/31 09:48:48;;;;;;;10.77;1.83;;;6.50;99.90;;;;;;6274580;22;20023;-87
2022/01/31 09:51:14;;;;;;;11.45;2.05;;;6.60;99.90;;;;;;6248222;22;20016;-87
2022/01/31 09:53:47;;;;;;;15.25;2.60;;;6.60;99.90;;;;;;6248531;22;20023;-86
2022/01/31 09:56:16;;;;;;;12.85;2.75;;;6.60;99.90;;;;;;6271972;22;20329;-87
2022/01/31 09:58:43;;;;;;;13.00;2.30;;;6.60;99.90;;;;;;6273175;22;20019;-87
2022/01/31 10:01:15;;;;;;;15.27;2.65;;;6.60;99.90;;;;;;6247557;22;20514;-86
2022/01/31 10:04:14;;;;;;;12.07;2.00;;;6.70;99.90;;;;;;6272897;22;20020;-88
2022/01/31 10:06:43;;;;;;;16.38;2.17;;;6.70;99.90;;;;;;6248044;22;20026;-86
2022/01/31 10:09:16;;;;;;;11.02;1.90;;;6.60;99.90;;;;;;6247550;22;20094;-85
2022/01/31 10:11:50;;;;;;;11.82;2.20;;;6.70;99.90;;;;;;6274074;22;20019;-84
2022/01/31 10:17:06;;;;;;;13.55;2.38;;;6.80;99.90;;;;;;6274594;22;20023;-87
2022/01/31 10:19:40;;;;;;;10.95;1.70;;;6.70;99.90;;;;;;6247735;22;20053;-87
2022/01/31 10:22:09;;;;;;;12.35;1.98;;;6.80;99.90;;;;;;6248862;22;20019;-87
2022/01/31 10:24:36;;;;;;;13.40;1.98;;;6.80;99.90;;;;;;6272815;22;20473;-88
2022/01/31 10:27:23;;;;;;;10.25;1.35;;;6.80;99.90;;;;;;6223357;22;20026;-87
2022/01/31 10:29:51;;;;;;;7.80;1.55;;;6.90;99.90;;;;;;6247351;22;20089;-87
2022/01/31 10:32:32;;;;;;;6.57;1.30;;;7.00;99.90;;;;;;6247858;22;20018;-87
2022/01/31 10:35:09;;;;;;;9.77;1.50;;;7.00;99.90;;;;;;6247309;22;20397;-87
2022/01/31 10:37:36;;;;;;;11.55;2.08;;;7.10;99.90;;;;;;6273191;22;20023;-87
2022/01/31 10:46:10;;;;;;;7.95;1.10;;;7.10;99.90;;;;;;6273403;22;20314;-85
2022/01/31 10:54:10;;;;;;;7.35;1.60;;;7.10;99.90;;;;;;6273554;22;20376;-79
2022/01/31 10:56:45;;;;;;;9.45;1.95;;;7.10;99.90;;;;;;6272278;22;20080;-80
2022/01/31 10:59:14;;;;;;;9.98;1.70;;;7.20;99.90;;;;;;6246473;22;20474;-78
2022/01/31 11:01:41;;;;;;;10.85;1.85;;;7.20;99.90;;;;;;6246537;22;20444;-81
2022/01/31 11:04:14;;;;;;;10.80;1.70;;;7.20;99.90;;;;;;6248186;22;20459;-80
2022/01/31 11:06:43;;;;;;;10.98;1.70;;;7.20;99.90;;;;;;6250140;22;20097;-80
2022/01/31 11:09:12;;;;;;;11.93;1.92;;;7.20;99.90;;;;;;6273240;22;20023;-80
2022/01/31 11:11:40;;;;;;;16.88;2.15;;;7.30;99.90;;;;;;6269001;22;20047;-80
2022/01/31 11:14:07;;;;;;;14.82;2.35;;;7.30;99.90;;;;;;6221181;22;20470;-81
2022/01/31 11:16:33;;;;;;;14.05;2.28;;;7.30;99.90;;;;;;6222595;22;20473;-78
2022/01/31 11:19:03;;;;;;;14.52;2.75;;;7.40;99.90;;;;;;6247001;22;20090;-81
2022/01/31 11:21:34;;;;;;;12.43;2.25;;;7.40;99.90;;;;;;6216764;22;20027;-80
2022/01/31 11:24:03;;;;;;;11.02;1.88;;;7.50;99.90;;;;;;6267497;22;20039;-81
2022/01/31 11:26:36;;;;;;;14.85;3.05;;;7.60;99.90;;;;;;6241815;22;20015;-81
2022/01/31 11:29:04;;;;;;;18.05;3.78;;;7.70;99.90;;;;;;6266868;22;20459;-80
2022/01/31 11:31:31;;;;;;;14.82;2.92;;;7.70;99.90;;;;;;6243576;22;20020;-80
2022/01/31 11:34:00;;;;;;;15.30;3.45;;;7.80;99.90;;;;;;6243062;22;20019;-83
2022/01/31 11:36:26;;;;;;;19.58;3.65;;;7.90;99.90;;;;;;6240512;22;20019;-80
2022/01/31 11:38:52;;;;;;;16.05;4.03;;;8.00;99.90;;;;;;6268214;22;20019;-80
2022/01/31 11:41:19;;;;;;;16.95;3.45;;;8.00;99.90;;;;;;6243439;22;20407;-83
2022/01/31 11:43:55;;;;;;;13.27;3.03;;;8.00;99.90;;;;;;6217669;22;20024;-82
2022/01/31 11:46:44;;;;;;;17.73;3.80;;;8.10;99.90;;;;;;6239345;22;20106;-81
2022/01/31 11:49:13;;;;;;;16.75;2.40;;;8.10;99.90;;;;;;6263922;22;20020;-82
2022/01/31 11:52:02;;;;;;;13.65;2.67;;;8.10;99.90;;;;;;6239574;22;20687;-81
2022/01/31 11:54:29;;;;;;;18.85;3.65;;;8.20;99.90;;;;;;6238020;22;20102;-80
2022/01/31 11:56:55;;;;;;;16.75;2.63;;;8.20;99.90;;;;;;6241864;22;20415;-81
2022/01/31 11:59:22;;;;;;;14.68;2.47;;;8.20;99.90;;;;;;6240154;22;20016;-81
2022/01/31 12:01:51;;;;;;;16.08;3.67;;;8.30;99.90;;;;;;6240812;22;20049;-81
2022/01/31 12:04:24;;;;;;;18.05;3.08;;;8.40;99.90;;;;;;6239108;22;20427;-80
2022/01/31 12:06:50;;;;;;;15.93;3.17;;;8.40;99.90;;;;;;6235980;22;20015;-81
2022/01/31 12:09:20;;;;;;;19.58;3.00;;;8.40;99.90;;;;;;6185736;22;20018;-81
2022/01/31 12:12:02;;;;;;;13.95;3.33;;;8.40;99.90;;;;;;6211313;22;20445;-82
2022/01/31 12:14:43;;;;;;;12.65;2.63;;;8.40;99.90;;;;;;6234535;22;20020;-81
2022/01/31 12:18:21;;;;;;;11.00;2.67;;;8.40;99.90;;;;;;6236526;22;20039;-83
2022/01/31 12:23:50;;;;;;;14.70;2.38;;;8.30;99.90;;;;;;6205751;22;20024;-82
2022/01/31 12:26:32;;;;;;;13.55;3.55;;;8.30;99.90;;;;;;6214294;22;20090;-83
2022/01/31 12:29:05;;;;;;;12.57;2.80;;;8.40;99.90;;;;;;6240967;22;20030;-83
2022/01/31 12:31:34;;;;;;;12.13;2.65;;;8.40;99.90;;;;;;6213301;22;20015;-85
2022/01/31 12:34:03;;;;;;;9.52;2.28;;;8.40;99.90;;;;;;6212780;22;20361;-83
2022/01/31 12:36:35;;;;;;;12.55;2.58;;;8.40;99.90;;;;;;6214242;22;20019;-85
2022/01/31 12:39:25;;;;;;;10.40;1.55;;;8.40;99.90;;;;;;6214334;22;20016;-82
2022/01/31 12:41:59;;;;;;;13.60;2.38;;;8.30;99.90;;;;;;6197961;22;20115;-85
2022/01/31 12:44:31;;;;;;;12.95;1.75;;;8.30;99.90;;;;;;6189874;22;20024;-82
2022/01/31 12:47:23;;;;;;;11.60;2.55;;;8.40;99.90;;;;;;6240771;22;20016;-86
2022/01/31 12:50:21;;;;;;;16.80;3.65;;;8.40;99.90;;;;;;6185425;22;20020;-83
2022/01/31 12:52:47;;;;;;;12.07;2.28;;;8.40;99.90;;;;;;6214723;22;20319;-83
2022/01/31 12:55:14;;;;;;;15.43;2.88;;;8.30;99.90;;;;;;6215007;22;20329;-81
2022/01/31 12:57:48;;;;;;;11.63;2.33;;;8.40;99.90;;;;;;6216547;22;20076;-83
2022/01/31 13:00:15;;;;;;;9.55;1.75;;;8.30;99.90;;;;;;6188771;22;20016;-84
2022/01/31 13:02:49;;;;;;;11.18;2.17;;;8.30;99.90;;;;;;6240824;22;20019;-82
2022/01/31 13:05:15;;;;;;;23.23;4.45;;;8.30;99.90;;;;;;6216525;22;20352;-83
2022/01/31 13:07:41;;;;;;;16.40;3.10;;;8.30;99.90;;;;;;6239037;22;20146;-82
2022/01/31 13:10:12;;;;;;;15.90;2.60;;;8.30;99.90;;;;;;6188336;22;20023;-86
2022/01/31 13:12:38;;;;;;;13.18;2.60;;;8.30;99.90;;;;;;6213973;22;20473;-82
2022/01/31 13:15:05;;;;;;;15.32;3.05;;;8.30;99.90;;;;;;6213615;22;20051;-84